sensor_id;sensor_type;location;lat;lon;timestamp;P1;durP1;ratioP1;P2;durP2;ratioP2
14316;SDS011;7242;50.858;6.586;2023-04-03T00:01:18;2.63;;;2.00;;
14316;SDS011;7242;50.858;6.586;2023-04-03T00:04:19;2.30;;;2.10;;
14316;SDS011;7242;50.858;6.586;2023-04-03T00:07:20;3.10;;;1.80;;
14316;SDS011;7242;50.858;6.586;2023-04-03T00:10:21;2.83;;;1.80;;
14316;SDS011;7242;50.858;6.586;2023-04-03T00:13:22;3.33;;;1.73;;
14316;SDS011;7242;50.858;6.586;2023-04-03T00:16:23;2.40;;;1.70;;
14316;SDS011;7242;50.858;6.586;2023-04-03T00:19:24;3.87;;;1.70;;
14316;SDS011;7242;50.858;6.586;2023-04-03T00:22:25;1.90;;;1.67;;
14316;SDS011;7242;50.858;6.586;2023-04-03T00:25:28;3.57;;;1.87;;
14316;SDS011;7242;50.858;6.586;2023-04-03T00:28:29;4.43;;;1.80;;
14316;SDS011;7242;50.858;6.586;2023-04-03T00:31:30;2.63;;;1.60;;
14316;SDS011;7242;50.858;6.586;2023-04-03T00:34:31;3.00;;;1.80;;
14316;SDS011;7242;50.858;6.586;2023-04-03T00:37:32;2.53;;;1.53;;
14316;SDS011;7242;50.858;6.586;2023-04-03T00:40:37;2.80;;;1.90;;
14316;SDS011;7242;50.858;6.586;2023-04-03T00:43:39;2.83;;;1.80;;
14316;SDS011;7242;50.858;6.586;2023-04-03T00:46:39;2.80;;;1.80;;
14316;SDS011;7242;50.858;6.586;2023-04-03T00:49:40;1.80;;;1.60;;
14316;SDS011;7242;50.858;6.586;2023-04-03T00:52:42;2.53;;;2.00;;
14316;SDS011;7242;50.858;6.586;2023-04-03T00:55:47;3.53;;;1.80;;
14316;SDS011;7242;50.858;6.586;2023-04-03T00:58:51;3.07;;;1.80;;
14316;SDS011;7242;50.858;6.586;2023-04-03T01:02:02;2.23;;;1.77;;
14316;SDS011;7242;50.858;6.586;2023-04-03T01:05:03;3.73;;;1.90;;
14316;SDS011;7242;50.858;6.586;2023-04-03T01:08:04;2.43;;;1.93;;
14316;SDS011;7242;50.858;6.586;2023-04-03T01:11:07;2.90;;;2.10;;
14316;SDS011;7242;50.858;6.586;2023-04-03T01:14:09;3.53;;;2.33;;
14316;SDS011;7242;50.858;6.586;2023-04-03T01:20:49;2.43;;;2.10;;
14316;SDS011;7242;50.858;6.586;2023-04-03T01:27:16;3.67;;;2.20;;
14316;SDS011;7242;50.858;6.586;2023-04-03T01:30:18;2.87;;;2.50;;
14316;SDS011;7242;50.858;6.586;2023-04-03T01:33:21;2.67;;;2.17;;
14316;SDS011;7242;50.858;6.586;2023-04-03T01:36:24;3.77;;;2.47;;
14316;SDS011;7242;50.858;6.586;2023-04-03T01:39:30;2.83;;;2.27;;
14316;SDS011;7242;50.858;6.586;2023-04-03T01:42:31;3.87;;;3.20;;
14316;SDS011;7242;50.858;6.586;2023-04-03T01:45:32;3.23;;;2.93;;
14316;SDS011;7242;50.858;6.586;2023-04-03T01:48:33;4.90;;;3.07;;
14316;SDS011;7242;50.858;6.586;2023-04-03T01:51:33;4.90;;;3.17;;
14316;SDS011;7242;50.858;6.586;2023-04-03T01:54:35;5.53;;;3.90;;
14316;SDS011;7242;50.858;6.586;2023-04-03T01:57:36;4.50;;;4.00;;
14316;SDS011;7242;50.858;6.586;2023-04-03T02:00:37;4.80;;;3.90;;
14316;SDS011;7242;50.858;6.586;2023-04-03T02:03:38;5.17;;;4.10;;
14316;SDS011;7242;50.858;6.586;2023-04-03T02:06:38;4.27;;;3.70;;
14316;SDS011;7242;50.858;6.586;2023-04-03T02:09:39;6.78;;;4.32;;
14316;SDS011;7242;50.858;6.586;2023-04-03T02:12:40;4.73;;;3.93;;
14316;SDS011;7242;50.858;6.586;2023-04-03T02:15:42;5.47;;;3.90;;
14316;SDS011;7242;50.858;6.586;2023-04-03T02:18:42;5.37;;;4.10;;
14316;SDS011;7242;50.858;6.586;2023-04-03T02:21:43;5.47;;;3.93;;
14316;SDS011;7242;50.858;6.586;2023-04-03T02:24:44;4.70;;;4.00;;
14316;SDS011;7242;50.858;6.586;2023-04-03T02:27:45;6.03;;;4.40;;
14316;SDS011;7242;50.858;6.586;2023-04-03T02:30:46;6.63;;;4.13;;
14316;SDS011;7242;50.858;6.586;2023-04-03T02:33:47;5.27;;;4.33;;
14316;SDS011;7242;50.858;6.586;2023-04-03T02:36:49;5.63;;;4.20;;
14316;SDS011;7242;50.858;6.586;2023-04-03T02:39:52;4.33;;;3.57;;
14316;SDS011;7242;50.858;6.586;2023-04-03T02:42:53;6.70;;;4.53;;
14316;SDS011;7242;50.858;6.586;2023-04-03T02:45:56;4.40;;;4.00;;
14316;SDS011;7242;50.858;6.586;2023-04-03T02:48:56;5.23;;;4.13;;
14316;SDS011;7242;50.858;6.586;2023-04-03T02:51:57;4.43;;;3.97;;
14316;SDS011;7242;50.858;6.586;2023-04-03T02:54:59;5.73;;;3.87;;
14316;SDS011;7242;50.858;6.586;2023-04-03T02:58:00;4.80;;;3.57;;
14316;SDS011;7242;50.858;6.586;2023-04-03T03:01:01;5.20;;;3.80;;
14316;SDS011;7242;50.858;6.586;2023-04-03T03:04:02;3.97;;;3.57;;
14316;SDS011;7242;50.858;6.586;2023-04-03T03:07:03;4.57;;;3.93;;
14316;SDS011;7242;50.858;6.586;2023-04-03T03:10:05;4.93;;;3.73;;
14316;SDS011;7242;50.858;6.586;2023-04-03T03:13:06;5.77;;;3.77;;
14316;SDS011;7242;50.858;6.586;2023-04-03T03:16:07;4.17;;;3.67;;
14316;SDS011;7242;50.858;6.586;2023-04-03T03:19:08;3.90;;;3.60;;
14316;SDS011;7242;50.858;6.586;2023-04-03T03:22:10;5.93;;;3.90;;
14316;SDS011;7242;50.858;6.586;2023-04-03T03:25:11;4.90;;;4.37;;
14316;SDS011;7242;50.858;6.586;2023-04-03T03:28:12;4.70;;;3.97;;
14316;SDS011;7242;50.858;6.586;2023-04-03T03:31:13;4.70;;;4.20;;
14316;SDS011;7242;50.858;6.586;2023-04-03T03:34:15;5.63;;;4.37;;
14316;SDS011;7242;50.858;6.586;2023-04-03T03:37:16;4.50;;;4.10;;
14316;SDS011;7242;50.858;6.586;2023-04-03T03:40:16;5.53;;;4.60;;
14316;SDS011;7242;50.858;6.586;2023-04-03T03:43:18;4.83;;;4.13;;
14316;SDS011;7242;50.858;6.586;2023-04-03T03:46:20;5.67;;;4.97;;
14316;SDS011;7242;50.858;6.586;2023-04-03T03:49:21;5.50;;;4.97;;
14316;SDS011;7242;50.858;6.586;2023-04-03T03:52:22;5.47;;;4.97;;
14316;SDS011;7242;50.858;6.586;2023-04-03T03:55:23;6.73;;;5.27;;
14316;SDS011;7242;50.858;6.586;2023-04-03T03:58:27;7.17;;;5.97;;
14316;SDS011;7242;50.858;6.586;2023-04-03T04:01:27;5.93;;;5.27;;
14316;SDS011;7242;50.858;6.586;2023-04-03T04:04:29;6.17;;;5.57;;
14316;SDS011;7242;50.858;6.586;2023-04-03T04:07:31;6.60;;;5.20;;
14316;SDS011;7242;50.858;6.586;2023-04-03T04:10:32;6.73;;;5.60;;
14316;SDS011;7242;50.858;6.586;2023-04-03T04:13:34;6.50;;;5.07;;
14316;SDS011;7242;50.858;6.586;2023-04-03T04:16:35;6.80;;;4.77;;
14316;SDS011;7242;50.858;6.586;2023-04-03T04:19:42;4.97;;;4.47;;
14316;SDS011;7242;50.858;6.586;2023-04-03T04:22:43;5.10;;;4.67;;
14316;SDS011;7242;50.858;6.586;2023-04-03T04:25:45;4.90;;;4.40;;
14316;SDS011;7242;50.858;6.586;2023-04-03T04:28:48;5.80;;;4.73;;
14316;SDS011;7242;50.858;6.586;2023-04-03T04:31:50;5.40;;;4.90;;
14316;SDS011;7242;50.858;6.586;2023-04-03T04:34:51;5.97;;;4.70;;
14316;SDS011;7242;50.858;6.586;2023-04-03T04:37:52;6.27;;;5.10;;
14316;SDS011;7242;50.858;6.586;2023-04-03T04:40:54;4.83;;;4.37;;
14316;SDS011;7242;50.858;6.586;2023-04-03T04:43:56;4.97;;;4.47;;
14316;SDS011;7242;50.858;6.586;2023-04-03T04:46:58;5.40;;;4.20;;
14316;SDS011;7242;50.858;6.586;2023-04-03T04:50:00;5.63;;;4.10;;
14316;SDS011;7242;50.858;6.586;2023-04-03T04:53:01;4.90;;;4.00;;
14316;SDS011;7242;50.858;6.586;2023-04-03T04:56:02;4.40;;;4.00;;
14316;SDS011;7242;50.858;6.586;2023-04-03T04:59:04;7.20;;;4.20;;
14316;SDS011;7242;50.858;6.586;2023-04-03T05:02:05;5.90;;;4.07;;
14316;SDS011;7242;50.858;6.586;2023-04-03T05:05:07;4.33;;;3.93;;
14316;SDS011;7242;50.858;6.586;2023-04-03T05:08:08;5.70;;;4.17;;
14316;SDS011;7242;50.858;6.586;2023-04-03T05:11:10;5.13;;;4.60;;
14316;SDS011;7242;50.858;6.586;2023-04-03T05:14:12;4.53;;;4.00;;
14316;SDS011;7242;50.858;6.586;2023-04-03T05:17:14;5.23;;;4.30;;
14316;SDS011;7242;50.858;6.586;2023-04-03T05:20:19;5.43;;;4.30;;
14316;SDS011;7242;50.858;6.586;2023-04-03T05:23:21;8.63;;;4.53;;
14316;SDS011;7242;50.858;6.586;2023-04-03T05:26:23;4.53;;;4.00;;
14316;SDS011;7242;50.858;6.586;2023-04-03T05:29:24;5.73;;;3.70;;
14316;SDS011;7242;50.858;6.586;2023-04-03T05:32:26;4.63;;;3.70;;
14316;SDS011;7242;50.858;6.586;2023-04-03T05:35:37;5.03;;;4.03;;
14316;SDS011;7242;50.858;6.586;2023-04-03T05:38:44;4.53;;;3.30;;
14316;SDS011;7242;50.858;6.586;2023-04-03T05:41:45;4.07;;;2.80;;
14316;SDS011;7242;50.858;6.586;2023-04-03T05:44:46;3.47;;;2.90;;
14316;SDS011;7242;50.858;6.586;2023-04-03T05:47:49;4.53;;;2.73;;
14316;SDS011;7242;50.858;6.586;2023-04-03T05:50:50;3.43;;;2.63;;
14316;SDS011;7242;50.858;6.586;2023-04-03T05:53:58;3.73;;;2.40;;
14316;SDS011;7242;50.858;6.586;2023-04-03T05:57:04;6.27;;;2.43;;
14316;SDS011;7242;50.858;6.586;2023-04-03T06:00:07;4.27;;;2.17;;
14316;SDS011;7242;50.858;6.586;2023-04-03T06:03:14;2.83;;;2.00;;
14316;SDS011;7242;50.858;6.586;2023-04-03T06:06:16;2.73;;;1.87;;
14316;SDS011;7242;50.858;6.586;2023-04-03T06:09:17;3.57;;;2.10;;
14316;SDS011;7242;50.858;6.586;2023-04-03T06:12:18;3.17;;;2.13;;
14316;SDS011;7242;50.858;6.586;2023-04-03T06:15:20;5.17;;;2.60;;
14316;SDS011;7242;50.858;6.586;2023-04-03T06:18:21;3.97;;;2.27;;
14316;SDS011;7242;50.858;6.586;2023-04-03T06:21:21;3.10;;;2.00;;
14316;SDS011;7242;50.858;6.586;2023-04-03T06:24:23;3.43;;;2.00;;
14316;SDS011;7242;50.858;6.586;2023-04-03T06:27:25;3.23;;;1.97;;
14316;SDS011;7242;50.858;6.586;2023-04-03T06:30:25;3.57;;;1.70;;
14316;SDS011;7242;50.858;6.586;2023-04-03T06:33:27;3.03;;;1.90;;
14316;SDS011;7242;50.858;6.586;2023-04-03T06:36:27;3.03;;;1.87;;
14316;SDS011;7242;50.858;6.586;2023-04-03T06:39:28;3.17;;;2.10;;
14316;SDS011;7242;50.858;6.586;2023-04-03T06:42:29;5.07;;;2.00;;
14316;SDS011;7242;50.858;6.586;2023-04-03T06:45:39;2.73;;;2.10;;
14316;SDS011;7242;50.858;6.586;2023-04-03T06:48:40;2.90;;;1.77;;
14316;SDS011;7242;50.858;6.586;2023-04-03T06:51:41;3.40;;;1.40;;
14316;SDS011;7242;50.858;6.586;2023-04-03T06:54:42;5.90;;;1.90;;
14316;SDS011;7242;50.858;6.586;2023-04-03T06:57:43;3.80;;;1.90;;
14316;SDS011;7242;50.858;6.586;2023-04-03T07:00:44;4.80;;;1.77;;
14316;SDS011;7242;50.858;6.586;2023-04-03T07:03:45;3.47;;;1.50;;
14316;SDS011;7242;50.858;6.586;2023-04-03T07:06:47;2.87;;;1.40;;
14316;SDS011;7242;50.858;6.586;2023-04-03T07:09:48;4.50;;;2.40;;
14316;SDS011;7242;50.858;6.586;2023-04-03T07:12:49;3.67;;;2.17;;
14316;SDS011;7242;50.858;6.586;2023-04-03T07:15:51;3.70;;;1.57;;
14316;SDS011;7242;50.858;6.586;2023-04-03T07:18:52;3.20;;;1.53;;
14316;SDS011;7242;50.858;6.586;2023-04-03T07:21:52;3.23;;;1.43;;
14316;SDS011;7242;50.858;6.586;2023-04-03T07:24:53;3.17;;;1.60;;
14316;SDS011;7242;50.858;6.586;2023-04-03T07:27:54;2.80;;;1.60;;
14316;SDS011;7242;50.858;6.586;2023-04-03T07:31:03;3.40;;;1.83;;
14316;SDS011;7242;50.858;6.586;2023-04-03T07:34:06;3.97;;;1.80;;
14316;SDS011;7242;50.858;6.586;2023-04-03T07:37:07;4.20;;;1.90;;
14316;SDS011;7242;50.858;6.586;2023-04-03T07:40:09;3.53;;;1.90;;
14316;SDS011;7242;50.858;6.586;2023-04-03T07:43:10;3.40;;;1.80;;
14316;SDS011;7242;50.858;6.586;2023-04-03T07:46:11;4.18;;;2.03;;
14316;SDS011;7242;50.858;6.586;2023-04-03T07:49:12;2.87;;;1.90;;
14316;SDS011;7242;50.858;6.586;2023-04-03T07:52:13;4.40;;;1.90;;
14316;SDS011;7242;50.858;6.586;2023-04-03T07:55:15;3.70;;;1.77;;
14316;SDS011;7242;50.858;6.586;2023-04-03T07:58:17;3.00;;;1.80;;
14316;SDS011;7242;50.858;6.586;2023-04-03T08:01:18;4.23;;;1.80;;
14316;SDS011;7242;50.858;6.586;2023-04-03T08:04:19;3.97;;;1.80;;
14316;SDS011;7242;50.858;6.586;2023-04-03T08:07:20;2.90;;;1.60;;
14316;SDS011;7242;50.858;6.586;2023-04-03T08:10:20;3.83;;;1.60;;
14316;SDS011;7242;50.858;6.586;2023-04-03T08:13:22;3.80;;;1.70;;
14316;SDS011;7242;50.858;6.586;2023-04-03T08:16:23;6.43;;;2.00;;
14316;SDS011;7242;50.858;6.586;2023-04-03T08:19:27;3.67;;;1.73;;
14316;SDS011;7242;50.858;6.586;2023-04-03T08:22:27;4.43;;;2.00;;
14316;SDS011;7242;50.858;6.586;2023-04-03T08:25:28;4.40;;;1.90;;
14316;SDS011;7242;50.858;6.586;2023-04-03T08:28:29;3.87;;;1.93;;
14316;SDS011;7242;50.858;6.586;2023-04-03T08:31:30;3.40;;;1.83;;
14316;SDS011;7242;50.858;6.586;2023-04-03T08:34:31;3.80;;;2.03;;
14316;SDS011;7242;50.858;6.586;2023-04-03T08:37:35;5.10;;;2.20;;
14316;SDS011;7242;50.858;6.586;2023-04-03T08:40:36;3.23;;;1.70;;
14316;SDS011;7242;50.858;6.586;2023-04-03T08:43:46;3.07;;;1.80;;
14316;SDS011;7242;50.858;6.586;2023-04-03T08:47:04;1.93;;;1.50;;
14316;SDS011;7242;50.858;6.586;2023-04-03T08:50:12;3.67;;;1.80;;
14316;SDS011;7242;50.858;6.586;2023-04-03T08:53:23;3.47;;;1.57;;
14316;SDS011;7242;50.858;6.586;2023-04-03T08:56:29;4.50;;;1.85;;
14316;SDS011;7242;50.858;6.586;2023-04-03T08:59:34;3.17;;;1.70;;
14316;SDS011;7242;50.858;6.586;2023-04-03T09:02:51;3.63;;;1.47;;
14316;SDS011;7242;50.858;6.586;2023-04-03T09:06:00;4.10;;;1.97;;
14316;SDS011;7242;50.858;6.586;2023-04-03T09:09:15;2.90;;;1.70;;
14316;SDS011;7242;50.858;6.586;2023-04-03T09:12:37;4.63;;;2.00;;
14316;SDS011;7242;50.858;6.586;2023-04-03T09:15:44;2.37;;;1.50;;
14316;SDS011;7242;50.858;6.586;2023-04-03T09:18:45;4.00;;;1.70;;
14316;SDS011;7242;50.858;6.586;2023-04-03T09:21:56;3.47;;;1.50;;
14316;SDS011;7242;50.858;6.586;2023-04-03T09:28:04;3.60;;;1.53;;
14316;SDS011;7242;50.858;6.586;2023-04-03T09:31:20;4.07;;;1.50;;
14316;SDS011;7242;50.858;6.586;2023-04-03T09:34:26;3.47;;;1.60;;
14316;SDS011;7242;50.858;6.586;2023-04-03T09:37:40;1.80;;;1.40;;
14316;SDS011;7242;50.858;6.586;2023-04-03T09:40:43;4.10;;;1.60;;
14316;SDS011;7242;50.858;6.586;2023-04-03T09:43:53;3.27;;;1.60;;
14316;SDS011;7242;50.858;6.586;2023-04-03T09:46:54;2.63;;;1.40;;
14316;SDS011;7242;50.858;6.586;2023-04-03T09:53:26;3.27;;;1.60;;
14316;SDS011;7242;50.858;6.586;2023-04-03T09:56:38;2.23;;;1.57;;
14316;SDS011;7242;50.858;6.586;2023-04-03T09:59:44;2.07;;;1.27;;
14316;SDS011;7242;50.858;6.586;2023-04-03T10:02:58;5.50;;;1.73;;
14316;SDS011;7242;50.858;6.586;2023-04-03T10:05:58;3.03;;;1.60;;
14316;SDS011;7242;50.858;6.586;2023-04-03T10:09:01;3.13;;;1.57;;
14316;SDS011;7242;50.858;6.586;2023-04-03T10:15:13;5.60;;;1.60;;
14316;SDS011;7242;50.858;6.586;2023-04-03T10:18:27;2.90;;;1.50;;
14316;SDS011;7242;50.858;6.586;2023-04-03T10:21:48;2.97;;;1.40;;
14316;SDS011;7242;50.858;6.586;2023-04-03T10:28:26;2.53;;;1.60;;
14316;SDS011;7242;50.858;6.586;2023-04-03T10:31:46;4.17;;;1.30;;
14316;SDS011;7242;50.858;6.586;2023-04-03T10:35:23;4.03;;;1.10;;
14316;SDS011;7242;50.858;6.586;2023-04-03T10:51:44;4.30;;;1.40;;
14316;SDS011;7242;50.858;6.586;2023-04-03T10:58:36;5.63;;;1.73;;
14316;SDS011;7242;50.858;6.586;2023-04-03T11:01:41;3.47;;;1.50;;
14316;SDS011;7242;50.858;6.586;2023-04-03T11:04:46;2.57;;;1.20;;
14316;SDS011;7242;50.858;6.586;2023-04-03T11:07:51;2.70;;;1.30;;
14316;SDS011;7242;50.858;6.586;2023-04-03T11:10:57;2.67;;;1.40;;
14316;SDS011;7242;50.858;6.586;2023-04-03T11:20:14;3.10;;;1.50;;
14316;SDS011;7242;50.858;6.586;2023-04-03T11:23:32;2.80;;;1.23;;
14316;SDS011;7242;50.858;6.586;2023-04-03T11:26:37;3.00;;;1.53;;
14316;SDS011;7242;50.858;6.586;2023-04-03T11:29:40;2.43;;;1.40;;
14316;SDS011;7242;50.858;6.586;2023-04-03T11:32:48;1.97;;;1.20;;
14316;SDS011;7242;50.858;6.586;2023-04-03T11:36:07;1.83;;;1.13;;
14316;SDS011;7242;50.858;6.586;2023-04-03T11:42:29;2.77;;;1.30;;
14316;SDS011;7242;50.858;6.586;2023-04-03T11:48:58;1.87;;;1.30;;
14316;SDS011;7242;50.858;6.586;2023-04-03T11:51:59;1.83;;;1.30;;
14316;SDS011;7242;50.858;6.586;2023-04-03T11:55:00;2.60;;;1.23;;
14316;SDS011;7242;50.858;6.586;2023-04-03T11:58:03;1.87;;;1.10;;
14316;SDS011;7242;50.858;6.586;2023-04-03T12:01:12;2.43;;;1.23;;
14316;SDS011;7242;50.858;6.586;2023-04-03T12:11:30;2.23;;;1.20;;
14316;SDS011;7242;50.858;6.586;2023-04-03T12:14:32;4.27;;;1.30;;
14316;SDS011;7242;50.858;6.586;2023-04-03T12:17:33;1.73;;;1.27;;
14316;SDS011;7242;50.858;6.586;2023-04-03T12:20:46;2.43;;;1.10;;
14316;SDS011;7242;50.858;6.586;2023-04-03T12:30:27;2.07;;;1.10;;
14316;SDS011;7242;50.858;6.586;2023-04-03T12:36:59;3.37;;;1.13;;
14316;SDS011;7242;50.858;6.586;2023-04-03T12:40:10;2.80;;;1.10;;
14316;SDS011;7242;50.858;6.586;2023-04-03T12:43:35;1.83;;;1.10;;
14316;SDS011;7242;50.858;6.586;2023-04-03T12:46:45;1.50;;;1.00;;
14316;SDS011;7242;50.858;6.586;2023-04-03T12:49:48;1.23;;;0.83;;
14316;SDS011;7242;50.858;6.586;2023-04-03T12:53:01;2.07;;;1.10;;
14316;SDS011;7242;50.858;6.586;2023-04-03T12:56:24;2.20;;;1.20;;
14316;SDS011;7242;50.858;6.586;2023-04-03T12:59:24;2.50;;;0.83;;
14316;SDS011;7242;50.858;6.586;2023-04-03T13:02:27;1.70;;;0.83;;
14316;SDS011;7242;50.858;6.586;2023-04-03T13:05:33;1.33;;;1.00;;
14316;SDS011;7242;50.858;6.586;2023-04-03T13:08:35;2.27;;;1.00;;
14316;SDS011;7242;50.858;6.586;2023-04-03T13:11:36;1.97;;;1.17;;
14316;SDS011;7242;50.858;6.586;2023-04-03T13:14:40;1.60;;;1.20;;
14316;SDS011;7242;50.858;6.586;2023-04-03T13:17:55;2.63;;;1.30;;
14316;SDS011;7242;50.858;6.586;2023-04-03T13:21:04;2.93;;;1.33;;
14316;SDS011;7242;50.858;6.586;2023-04-03T13:24:08;1.30;;;0.93;;
14316;SDS011;7242;50.858;6.586;2023-04-03T13:27:10;2.17;;;1.37;;
14316;SDS011;7242;50.858;6.586;2023-04-03T13:30:53;3.07;;;1.90;;
14316;SDS011;7242;50.858;6.586;2023-04-03T13:34:24;1.40;;;0.93;;
14316;SDS011;7242;50.858;6.586;2023-04-03T13:37:07;2.57;;;1.10;;
14316;SDS011;7242;50.858;6.586;2023-04-03T13:40:46;1.80;;;1.20;;
14316;SDS011;7242;50.858;6.586;2023-04-03T13:43:49;2.67;;;1.10;;
14316;SDS011;7242;50.858;6.586;2023-04-03T13:46:51;1.20;;;1.07;;
14316;SDS011;7242;50.858;6.586;2023-04-03T13:49:59;1.63;;;0.93;;
14316;SDS011;7242;50.858;6.586;2023-04-03T13:53:11;1.60;;;1.10;;
14316;SDS011;7242;50.858;6.586;2023-04-03T13:56:17;2.90;;;1.10;;
14316;SDS011;7242;50.858;6.586;2023-04-03T13:59:35;1.10;;;0.90;;
14316;SDS011;7242;50.858;6.586;2023-04-03T14:02:38;1.00;;;1.00;;
14316;SDS011;7242;50.858;6.586;2023-04-03T14:05:39;2.40;;;1.10;;
14316;SDS011;7242;50.858;6.586;2023-04-03T14:08:40;3.30;;;0.97;;
14316;SDS011;7242;50.858;6.586;2023-04-03T14:11:41;1.13;;;0.83;;
14316;SDS011;7242;50.858;6.586;2023-04-03T14:14:42;3.33;;;1.90;;
14316;SDS011;7242;50.858;6.586;2023-04-03T14:17:45;3.57;;;1.00;;
14316;SDS011;7242;50.858;6.586;2023-04-03T14:20:46;1.77;;;0.97;;
14316;SDS011;7242;50.858;6.586;2023-04-03T14:23:48;2.70;;;1.00;;
14316;SDS011;7242;50.858;6.586;2023-04-03T14:26:50;3.33;;;1.10;;
14316;SDS011;7242;50.858;6.586;2023-04-03T14:29:53;1.17;;;1.00;;
14316;SDS011;7242;50.858;6.586;2023-04-03T14:32:55;1.97;;;1.00;;
14316;SDS011;7242;50.858;6.586;2023-04-03T14:35:56;1.27;;;1.00;;
14316;SDS011;7242;50.858;6.586;2023-04-03T14:38:57;2.23;;;0.90;;
14316;SDS011;7242;50.858;6.586;2023-04-03T14:41:59;1.83;;;1.00;;
14316;SDS011;7242;50.858;6.586;2023-04-03T14:45:01;1.73;;;1.10;;
14316;SDS011;7242;50.858;6.586;2023-04-03T14:48:04;1.33;;;0.97;;
14316;SDS011;7242;50.858;6.586;2023-04-03T14:51:13;1.73;;;1.30;;
14316;SDS011;7242;50.858;6.586;2023-04-03T14:54:17;0.83;;;0.83;;
14316;SDS011;7242;50.858;6.586;2023-04-03T14:57:19;1.20;;;0.93;;
14316;SDS011;7242;50.858;6.586;2023-04-03T15:00:24;3.03;;;1.10;;
14316;SDS011;7242;50.858;6.586;2023-04-03T15:03:25;3.37;;;1.10;;
14316;SDS011;7242;50.858;6.586;2023-04-03T15:06:25;0.93;;;0.80;;
14316;SDS011;7242;50.858;6.586;2023-04-03T15:09:26;1.10;;;1.00;;
14316;SDS011;7242;50.858;6.586;2023-04-03T15:12:28;1.50;;;1.10;;
14316;SDS011;7242;50.858;6.586;2023-04-03T15:15:29;1.30;;;1.17;;
14316;SDS011;7242;50.858;6.586;2023-04-03T15:18:31;1.97;;;1.23;;
14316;SDS011;7242;50.858;6.586;2023-04-03T15:21:38;3.83;;;1.27;;
14316;SDS011;7242;50.858;6.586;2023-04-03T15:24:39;1.57;;;1.10;;
14316;SDS011;7242;50.858;6.586;2023-04-03T15:27:40;1.50;;;1.10;;
14316;SDS011;7242;50.858;6.586;2023-04-03T15:30:40;2.77;;;1.33;;
14316;SDS011;7242;50.858;6.586;2023-04-03T15:33:42;1.70;;;1.23;;
14316;SDS011;7242;50.858;6.586;2023-04-03T15:36:43;2.57;;;1.20;;
14316;SDS011;7242;50.858;6.586;2023-04-03T15:39:44;2.33;;;1.10;;
14316;SDS011;7242;50.858;6.586;2023-04-03T15:42:45;1.90;;;1.23;;
14316;SDS011;7242;50.858;6.586;2023-04-03T15:45:46;1.43;;;1.10;;
14316;SDS011;7242;50.858;6.586;2023-04-03T15:48:47;1.10;;;0.97;;
14316;SDS011;7242;50.858;6.586;2023-04-03T15:51:49;4.57;;;1.43;;
14316;SDS011;7242;50.858;6.586;2023-04-03T15:54:50;3.93;;;1.23;;
14316;SDS011;7242;50.858;6.586;2023-04-03T15:57:52;2.70;;;1.30;;
14316;SDS011;7242;50.858;6.586;2023-04-03T16:00:53;1.70;;;1.10;;
14316;SDS011;7242;50.858;6.586;2023-04-03T16:03:54;5.57;;;2.57;;
14316;SDS011;7242;50.858;6.586;2023-04-03T16:06:55;4.73;;;2.43;;
14316;SDS011;7242;50.858;6.586;2023-04-03T16:09:56;2.23;;;1.20;;
14316;SDS011;7242;50.858;6.586;2023-04-03T16:12:57;3.10;;;1.53;;
14316;SDS011;7242;50.858;6.586;2023-04-03T16:15:59;1.63;;;1.10;;
14316;SDS011;7242;50.858;6.586;2023-04-03T16:19:01;1.50;;;1.00;;
14316;SDS011;7242;50.858;6.586;2023-04-03T16:22:02;1.90;;;1.10;;
14316;SDS011;7242;50.858;6.586;2023-04-03T16:25:04;2.17;;;1.40;;
14316;SDS011;7242;50.858;6.586;2023-04-03T16:28:05;1.47;;;1.00;;
14316;SDS011;7242;50.858;6.586;2023-04-03T16:31:06;3.10;;;1.40;;
14316;SDS011;7242;50.858;6.586;2023-04-03T16:34:08;2.80;;;1.57;;
14316;SDS011;7242;50.858;6.586;2023-04-03T16:37:09;2.97;;;1.63;;
14316;SDS011;7242;50.858;6.586;2023-04-03T16:40:10;2.37;;;1.73;;
14316;SDS011;7242;50.858;6.586;2023-04-03T16:43:12;3.23;;;2.20;;
14316;SDS011;7242;50.858;6.586;2023-04-03T16:46:13;3.10;;;2.10;;
14316;SDS011;7242;50.858;6.586;2023-04-03T16:49:14;3.07;;;1.50;;
14316;SDS011;7242;50.858;6.586;2023-04-03T16:52:15;4.50;;;2.20;;
14316;SDS011;7242;50.858;6.586;2023-04-03T16:55:16;5.73;;;1.40;;
14316;SDS011;7242;50.858;6.586;2023-04-03T16:58:17;2.10;;;1.20;;
14316;SDS011;7242;50.858;6.586;2023-04-03T17:01:19;3.20;;;1.47;;
14316;SDS011;7242;50.858;6.586;2023-04-03T17:04:21;2.60;;;1.70;;
14316;SDS011;7242;50.858;6.586;2023-04-03T17:07:22;2.40;;;1.57;;
14316;SDS011;7242;50.858;6.586;2023-04-03T17:10:24;2.23;;;1.40;;
14316;SDS011;7242;50.858;6.586;2023-04-03T17:13:25;2.67;;;1.30;;
14316;SDS011;7242;50.858;6.586;2023-04-03T17:16:32;1.60;;;1.40;;
14316;SDS011;7242;50.858;6.586;2023-04-03T17:19:35;2.53;;;1.60;;
14316;SDS011;7242;50.858;6.586;2023-04-03T17:22:37;5.33;;;2.00;;
14316;SDS011;7242;50.858;6.586;2023-04-03T17:25:38;2.57;;;2.17;;
14316;SDS011;7242;50.858;6.586;2023-04-03T17:28:39;4.47;;;2.73;;
14316;SDS011;7242;50.858;6.586;2023-04-03T17:31:41;2.50;;;1.60;;
14316;SDS011;7242;50.858;6.586;2023-04-03T17:34:42;2.77;;;1.70;;
14316;SDS011;7242;50.858;6.586;2023-04-03T17:37:43;3.47;;;2.70;;
14316;SDS011;7242;50.858;6.586;2023-04-03T17:40:44;2.93;;;2.10;;
14316;SDS011;7242;50.858;6.586;2023-04-03T17:43:45;3.60;;;1.90;;
14316;SDS011;7242;50.858;6.586;2023-04-03T17:46:46;3.53;;;2.30;;
14316;SDS011;7242;50.858;6.586;2023-04-03T17:49:47;4.50;;;2.90;;
14316;SDS011;7242;50.858;6.586;2023-04-03T17:52:48;2.33;;;1.63;;
14316;SDS011;7242;50.858;6.586;2023-04-03T17:55:49;3.03;;;1.60;;
14316;SDS011;7242;50.858;6.586;2023-04-03T17:58:50;2.47;;;1.70;;
14316;SDS011;7242;50.858;6.586;2023-04-03T18:01:50;3.13;;;1.90;;
14316;SDS011;7242;50.858;6.586;2023-04-03T18:04:51;3.70;;;1.90;;
14316;SDS011;7242;50.858;6.586;2023-04-03T18:07:52;3.60;;;2.07;;
14316;SDS011;7242;50.858;6.586;2023-04-03T18:10:53;3.67;;;2.70;;
14316;SDS011;7242;50.858;6.586;2023-04-03T18:13:56;3.23;;;2.23;;
14316;SDS011;7242;50.858;6.586;2023-04-03T18:16:58;5.00;;;3.40;;
14316;SDS011;7242;50.858;6.586;2023-04-03T18:19:59;5.20;;;3.20;;
14316;SDS011;7242;50.858;6.586;2023-04-03T18:23:00;5.53;;;3.70;;
14316;SDS011;7242;50.858;6.586;2023-04-03T18:26:01;3.00;;;2.20;;
14316;SDS011;7242;50.858;6.586;2023-04-03T18:29:03;4.13;;;3.20;;
14316;SDS011;7242;50.858;6.586;2023-04-03T18:32:06;5.33;;;3.20;;
14316;SDS011;7242;50.858;6.586;2023-04-03T18:35:09;5.70;;;2.40;;
14316;SDS011;7242;50.858;6.586;2023-04-03T18:38:10;2.13;;;1.63;;
14316;SDS011;7242;50.858;6.586;2023-04-03T18:41:11;3.57;;;2.17;;
14316;SDS011;7242;50.858;6.586;2023-04-03T18:44:14;5.90;;;2.20;;
14316;SDS011;7242;50.858;6.586;2023-04-03T18:47:18;10.13;;;4.07;;
14316;SDS011;7242;50.858;6.586;2023-04-03T18:50:20;5.13;;;2.20;;
14316;SDS011;7242;50.858;6.586;2023-04-03T18:53:21;3.27;;;2.10;;
14316;SDS011;7242;50.858;6.586;2023-04-03T18:56:21;4.87;;;2.07;;
14316;SDS011;7242;50.858;6.586;2023-04-03T18:59:22;3.90;;;1.90;;
14316;SDS011;7242;50.858;6.586;2023-04-03T19:02:24;2.67;;;1.30;;
14316;SDS011;7242;50.858;6.586;2023-04-03T19:05:25;2.07;;;1.47;;
14316;SDS011;7242;50.858;6.586;2023-04-03T19:08:27;4.63;;;1.50;;
14316;SDS011;7242;50.858;6.586;2023-04-03T19:11:28;3.83;;;1.40;;
14316;SDS011;7242;50.858;6.586;2023-04-03T19:14:29;2.30;;;1.33;;
14316;SDS011;7242;50.858;6.586;2023-04-03T19:17:30;3.37;;;1.80;;
14316;SDS011;7242;50.858;6.586;2023-04-03T19:20:31;4.23;;;1.50;;
14316;SDS011;7242;50.858;6.586;2023-04-03T19:23:32;3.83;;;1.50;;
14316;SDS011;7242;50.858;6.586;2023-04-03T19:26:33;2.80;;;1.47;;
14316;SDS011;7242;50.858;6.586;2023-04-03T19:29:34;3.00;;;1.50;;
14316;SDS011;7242;50.858;6.586;2023-04-03T19:32:35;4.00;;;1.50;;
14316;SDS011;7242;50.858;6.586;2023-04-03T19:35:38;4.57;;;1.70;;
14316;SDS011;7242;50.858;6.586;2023-04-03T19:38:40;1.93;;;1.40;;
14316;SDS011;7242;50.858;6.586;2023-04-03T19:41:41;3.23;;;1.70;;
14316;SDS011;7242;50.858;6.586;2023-04-03T19:44:44;4.53;;;1.70;;
14316;SDS011;7242;50.858;6.586;2023-04-03T19:47:47;2.43;;;1.40;;